Time;durP1;ratioP1;P1;durP2;ratioP2;P2;SDS_P1;SDS_P2;PMS_P1;PMS_P2;Temp;Humidity;BMP_temperature;BMP_pressure;BME280_temperature;BME280_humidity;BME280_pressure;Samples;Min_cycle;Max_cycle;Signal;HPM_P1;HPM_P2
2023/01/27 00:00:02;;;;;;;9.18;2.55;;;5.50;99.90;;;;;;5052678;28;20029;-73
2023/01/27 00:02:27;;;;;;;7.85;2.40;;;5.50;99.90;;;;;;5052553;28;20060;-72
2023/01/27 00:04:53;;;;;;;6.35;2.70;;;5.50;99.90;;;;;;5052593;28;20056;-72
2023/01/27 00:07:18;;;;;;;4.45;2.60;;;5.60;99.90;;;;;;5052083;28;20108;-74
2023/01/27 00:09:44;;;;;;;4.55;2.35;;;5.60;99.90;;;;;;5052709;28;20025;-71
2023/01/27 00:15:05;;;;;;;;;;;5.60;99.90;;;;;;5052991;28;20035;-71
2023/01/27 00:17:31;;;;;;;6.18;2.88;;;5.50;99.90;;;;;;5051801;28;19905;-71
2023/01/27 00:19:57;;;;;;;6.00;2.28;;;5.50;99.90;;;;;;5052176;28;20099;-71
2023/01/27 00:25:07;;;;;;;5.07;2.90;;;5.60;99.90;;;;;;5052200;28;20044;-71
2023/01/27 00:27:32;;;;;;;8.65;3.08;;;5.50;99.90;;;;;;5050712;28;20033;-71
2023/01/27 00:29:58;;;;;;;9.25;2.75;;;5.50;99.90;;;;;;5052264;28;20086;-72
2023/01/27 00:35:08;;;;;;;5.97;2.80;;;5.50;99.90;;;;;;5052187;28;20106;-69
2023/01/27 00:37:33;;;;;;;7.57;2.83;;;5.50;99.90;;;;;;5051430;28;20474;-70
2023/01/27 00:39:59;;;;;;;10.60;2.50;;;5.50;99.90;;;;;;5052490;28;20097;-71
2023/01/27 00:42:24;;;;;;;6.35;2.55;;;5.50;99.90;;;;;;5052228;28;20074;-72
2023/01/27 00:47:34;;;;;;;6.68;2.53;;;5.50;99.90;;;;;;5051861;28;20541;-72
2023/01/27 00:49:59;;;;;;;4.38;2.50;;;5.50;99.90;;;;;;5051910;28;20033;-71
2023/01/27 00:52:25;;;;;;;10.43;2.60;;;5.50;99.90;;;;;;5051803;28;20051;-71
2023/01/27 00:54:51;;;;;;;5.53;2.78;;;5.50;99.90;;;;;;5051694;28;20024;-71
2023/01/27 00:57:16;;;;;;;5.97;2.88;;;5.50;99.90;;;;;;5051328;28;20036;-72
2023/01/27 00:59:42;;;;;;;6.90;2.67;;;5.60;99.90;;;;;;5051795;28;20577;-72
2023/01/27 01:02:07;;;;;;;5.32;2.45;;;5.50;99.90;;;;;;5038431;28;20017;-72
2023/01/27 01:04:33;;;;;;;6.57;2.72;;;5.50;99.90;;;;;;5045337;28;20033;-73
2023/01/27 01:06:58;;;;;;;8.20;2.88;;;5.60;99.90;;;;;;5050101;28;20474;-74
2023/01/27 01:09:24;;;;;;;7.55;2.70;;;5.60;99.90;;;;;;5051702;28;20035;-72
2023/01/27 01:11:49;;;;;;;7.10;2.78;;;5.60;99.90;;;;;;5051547;28;20029;-73
2023/01/27 01:14:15;;;;;;;9.00;3.10;;;5.60;99.90;;;;;;5051379;28;20040;-71
2023/01/27 01:16:40;;;;;;;4.45;2.67;;;5.60;99.90;;;;;;5050979;28;20036;-71
2023/01/27 01:19:06;;;;;;;12.07;2.78;;;5.60;99.90;;;;;;5051721;28;20036;-73
2023/01/27 01:21:32;;;;;;;7.30;3.00;;;5.60;99.90;;;;;;5051328;28;20029;-73
2023/01/27 01:23:57;;;;;;;3.92;2.88;;;5.60;99.90;;;;;;5051492;28;20045;-72
2023/01/27 01:26:23;;;;;;;10.75;3.00;;;5.60;99.90;;;;;;5051085;28;20060;-72
2023/01/27 01:28:48;;;;;;;7.13;2.50;;;5.60;99.90;;;;;;5051369;28;20100;-74
2023/01/27 01:31:17;;;;;;;5.07;2.75;;;5.60;99.90;;;;;;5051581;28;20045;-73
2023/01/27 01:33:43;;;;;;;6.30;3.33;;;5.60;99.90;;;;;;5051427;28;20033;-74
2023/01/27 01:36:14;;;;;;;6.80;3.58;;;5.60;99.90;;;;;;5050952;28;20366;-73
2023/01/27 01:38:40;;;;;;;8.15;3.60;;;5.60;99.90;;;;;;5052797;28;20056;-72
2023/01/27 01:41:09;;;;;;;10.38;3.80;;;5.60;99.90;;;;;;5055407;28;20055;-71
2023/01/27 01:43:35;;;;;;;11.82;3.75;;;5.50;99.90;;;;;;5055354;28;20021;-71
2023/01/27 01:46:01;;;;;;;8.32;3.55;;;5.60;99.90;;;;;;5054837;28;20024;-70
2023/01/27 01:48:51;;;;;;;9.70;3.75;;;5.60;99.90;;;;;;5055438;28;20497;-70
2023/01/27 01:51:23;;;;;;;6.60;3.90;;;5.60;99.90;;;;;;5055048;28;20036;-70
2023/01/27 01:53:52;;;;;;;7.18;3.58;;;5.60;99.90;;;;;;5055132;28;20104;-70
2023/01/27 01:56:24;;;;;;;9.88;3.55;;;5.60;99.90;;;;;;5056313;28;20032;-69
2023/01/27 01:58:51;;;;;;;10.07;3.72;;;5.60;99.90;;;;;;5055273;28;20536;-71
2023/01/27 02:01:18;;;;;;;11.63;4.43;;;5.60;99.90;;;;;;5055922;28;20478;-73
2023/01/27 02:03:48;;;;;;;12.18;4.05;;;5.60;99.90;;;;;;5053292;28;20021;-73
2023/01/27 02:06:17;;;;;;;15.30;4.70;;;5.60;99.90;;;;;;5054203;28;20048;-72
2023/01/27 02:08:46;;;;;;;10.55;4.28;;;5.60;99.90;;;;;;5052930;28;20104;-74
2023/01/27 02:11:11;;;;;;;10.48;3.67;;;5.60;99.90;;;;;;5055718;28;20029;-73
2023/01/27 02:13:38;;;;;;;6.97;3.60;;;5.50;99.90;;;;;;5055697;28;20045;-73
2023/01/27 02:16:05;;;;;;;8.85;4.07;;;5.60;99.90;;;;;;5055038;28;20439;-73
2023/01/27 02:18:30;;;;;;;6.13;3.70;;;5.60;99.90;;;;;;5054786;28;20044;-72
2023/01/27 02:20:57;;;;;;;9.68;4.03;;;5.60;99.90;;;;;;5054357;28;20025;-72
2023/01/27 02:23:30;;;;;;;6.35;3.63;;;5.60;99.90;;;;;;5055796;28;20383;-73
2023/01/27 02:26:08;;;;;;;6.07;3.58;;;5.60;99.90;;;;;;5055765;28;20071;-73
2023/01/27 02:28:34;;;;;;;8.43;4.07;;;5.60;99.90;;;;;;5055786;28;20021;-73
2023/01/27 02:30:59;;;;;;;7.55;3.15;;;5.60;99.90;;;;;;5054915;28;20504;-73
2023/01/27 02:33:25;;;;;;;6.68;3.42;;;5.60;99.90;;;;;;5054137;28;20355;-73
2023/01/27 02:35:59;;;;;;;7.68;3.42;;;5.60;99.90;;;;;;5053944;28;20052;-72
2023/01/27 02:38:28;;;;;;;10.70;3.58;;;5.60;99.90;;;;;;5054393;28;20021;-73
2023/01/27 02:40:58;;;;;;;8.52;3.03;;;5.50;99.90;;;;;;5054169;28;20017;-73
2023/01/27 02:43:23;;;;;;;6.32;3.53;;;5.50;99.90;;;;;;5054204;28;20036;-73
2023/01/27 02:45:49;;;;;;;4.78;3.20;;;5.50;99.90;;;;;;5053549;28;20025;-75
2023/01/27 02:48:14;;;;;;;6.47;3.08;;;5.40;99.90;;;;;;5055606;28;20029;-74
2023/01/27 02:50:40;;;;;;;5.95;3.10;;;5.50;99.90;;;;;;5054570;28;20490;-74
2023/01/27 02:53:06;;;;;;;12.98;3.60;;;5.40;99.90;;;;;;5057438;28;20086;-74
2023/01/27 02:55:32;;;;;;;5.82;3.60;;;5.40;99.90;;;;;;5055407;28;20051;-75
2023/01/27 02:57:57;;;;;;;12.63;4.07;;;5.40;99.90;;;;;;5056064;28;20028;-75
2023/01/27 03:00:23;;;;;;;8.02;3.53;;;5.40;99.90;;;;;;5055890;28;20276;-75
2023/01/27 03:02:48;;;;;;;6.22;3.03;;;5.40;99.90;;;;;;5055246;28;20032;-74
2023/01/27 03:05:14;;;;;;;6.03;3.10;;;5.40;99.90;;;;;;5055327;28;20458;-73
2023/01/27 03:07:40;;;;;;;7.22;3.17;;;5.40;99.90;;;;;;5053296;28;20064;-72
2023/01/27 03:10:07;;;;;;;8.82;3.25;;;5.40;99.90;;;;;;5053867;28;20108;-73
2023/01/27 03:12:33;;;;;;;6.88;3.28;;;5.40;99.90;;;;;;5054404;28;20447;-73
2023/01/27 03:20:26;;;;;;;9.80;3.03;;;5.40;99.90;;;;;;5053591;28;20086;-73
2023/01/27 03:22:52;;;;;;;6.60;2.83;;;5.40;99.90;;;;;;5053265;28;20025;-72
2023/01/27 03:25:17;;;;;;;5.38;2.70;;;5.40;99.90;;;;;;5053130;28;20082;-72
2023/01/27 03:27:43;;;;;;;7.45;2.53;;;5.40;99.90;;;;;;5052691;28;20386;-72
2023/01/27 03:30:09;;;;;;;5.40;2.75;;;5.40;99.90;;;;;;5053317;28;20040;-71
2023/01/27 03:32:35;;;;;;;4.85;2.63;;;5.30;99.90;;;;;;5052973;28;20033;-72
2023/01/27 03:35:01;;;;;;;4.57;2.65;;;5.30;99.90;;;;;;5053040;28;20029;-72
2023/01/27 03:48:31;;;;;;;9.63;3.08;;;5.30;99.90;;;;;;5041539;28;20224;-73
2023/01/27 03:50:57;;;;;;;6.25;2.63;;;5.40;99.90;;;;;;5043247;28;20385;-72
2023/01/27 03:53:23;;;;;;;5.28;2.55;;;5.30;99.90;;;;;;5042195;28;20025;-72
2023/01/27 03:55:48;;;;;;;4.15;2.67;;;5.40;99.90;;;;;;5040268;28;20467;-74
2023/01/27 03:58:28;;;;;;;4.88;2.67;;;5.40;99.90;;;;;;5042272;28;20429;-71
2023/01/27 04:00:56;;;;;;;5.15;2.70;;;5.40;99.90;;;;;;5047617;28;20474;-72
2023/01/27 04:09:20;;;;;;;2.88;2.35;;;5.40;99.90;;;;;;5032777;28;20032;-72
2023/01/27 04:11:54;;;;;;;4.13;2.22;;;5.40;99.90;;;;;;5032569;28;20060;-72
2023/01/27 04:14:36;;;;;;;3.25;2.33;;;5.40;99.90;;;;;;5032552;28;20406;-72
2023/01/27 04:17:11;;;;;;;5.07;2.90;;;5.40;99.90;;;;;;5031967;28;20014;-72
2023/01/27 04:19:37;;;;;;;3.33;2.15;;;5.40;99.90;;;;;;5032386;28;20052;-71
2023/01/27 04:22:03;;;;;;;4.78;2.50;;;5.40;99.90;;;;;;5032170;28;20505;-72
2023/01/27 04:24:29;;;;;;;6.93;2.38;;;5.30;99.90;;;;;;5032483;28;20036;-73
2023/01/27 04:26:57;;;;;;;3.20;2.17;;;5.40;99.90;;;;;;5031906;28;20029;-73
2023/01/27 04:29:25;;;;;;;5.68;3.00;;;5.30;99.90;;;;;;5032549;28;20320;-73
2023/01/27 04:31:51;;;;;;;3.80;2.67;;;5.40;99.90;;;;;;5032378;28;20079;-74
2023/01/27 04:34:17;;;;;;;5.25;2.25;;;5.30;99.90;;;;;;5032674;28;20422;-71
2023/01/27 04:36:43;;;;;;;6.85;2.40;;;5.40;99.90;;;;;;5047268;28;20029;-72
2023/01/27 04:39:09;;;;;;;4.70;2.30;;;5.30;99.90;;;;;;5052009;28;20075;-72
2023/01/27 04:41:36;;;;;;;8.35;3.35;;;5.30;99.90;;;;;;5051790;28;20025;-72
2023/01/27 04:44:03;;;;;;;8.68;2.67;;;5.30;99.90;;;;;;5051871;28;20021;-73
2023/01/27 04:46:28;;;;;;;7.38;2.50;;;5.30;99.90;;;;;;5051419;28;20454;-72
2023/01/27 04:48:54;;;;;;;5.38;2.30;;;5.30;99.90;;;;;;5051963;28;20053;-72
2023/01/27 04:51:20;;;;;;;6.13;2.40;;;5.30;99.90;;;;;;5051812;28;20111;-72
2023/01/27 04:53:45;;;;;;;4.15;2.30;;;5.40;99.90;;;;;;5052626;28;20047;-73
2023/01/27 04:56:24;;;;;;;2.95;2.28;;;5.40;99.90;;;;;;5051813;28;20017;-72
2023/01/27 04:58:50;;;;;;;3.90;2.30;;;5.30;99.90;;;;;;5051914;28;20032;-71
2023/01/27 05:01:16;;;;;;;3.65;2.80;;;5.30;99.90;;;;;;5051727;28;20021;-71
2023/01/27 05:03:42;;;;;;;8.63;2.80;;;5.30;99.90;;;;;;5051762;28;20025;-72
2023/01/27 05:06:09;;;;;;;4.55;2.90;;;5.30;99.90;;;;;;5051716;28;20025;-73
2023/01/27 05:08:35;;;;;;;3.70;2.25;;;5.30;99.90;;;;;;5052547;28;20021;-72
2023/01/27 05:11:00;;;;;;;9.25;2.38;;;5.30;99.90;;;;;;5052273;28;20033;-73
2023/01/27 05:13:26;;;;;;;2.83;2.13;;;5.30;99.90;;;;;;5054235;28;20052;-72
2023/01/27 05:16:01;;;;;;;3.75;2.08;;;5.30;99.90;;;;;;5057819;28;20021;-73
2023/01/27 05:18:27;;;;;;;3.40;1.90;;;5.20;99.90;;;;;;5058403;28;20399;-72
2023/01/27 05:20:52;;;;;;;3.75;1.83;;;5.20;99.90;;;;;;5058581;28;20029;-72
2023/01/27 05:23:36;;;;;;;3.47;1.95;;;5.30;99.90;;;;;;5059629;28;20086;-74
2023/01/27 05:26:10;;;;;;;2.67;1.60;;;5.30;99.90;;;;;;5061771;28;20021;-73
2023/01/27 05:28:37;;;;;;;5.25;1.80;;;5.30;99.90;;;;;;5058790;28;20108;-74
2023/01/27 05:31:05;;;;;;;4.70;1.77;;;5.20;99.90;;;;;;5058643;28;20493;-72
2023/01/27 05:33:31;;;;;;;4.40;1.90;;;5.20;99.90;;;;;;5058871;28;20394;-73
2023/01/27 05:36:04;;;;;;;3.35;1.52;;;5.20;99.90;;;;;;5057806;28;20037;-72
2023/01/27 05:38:30;;;;;;;8.15;2.20;;;5.20;99.90;;;;;;5058216;28;20032;-74
2023/01/27 05:41:02;;;;;;;6.28;2.40;;;5.20;99.90;;;;;;5058779;28;20029;-73
2023/01/27 05:43:33;;;;;;;3.97;1.77;;;5.10;99.90;;;;;;5064562;28;20076;-73
2023/01/27 05:46:17;;;;;;;6.40;2.15;;;5.10;99.90;;;;;;5058340;28;20505;-76
2023/01/27 05:48:45;;;;;;;2.53;1.52;;;5.10;99.90;;;;;;5058287;28;20030;-76
2023/01/27 05:51:12;;;;;;;4.50;1.58;;;5.10;99.90;;;;;;5059408;28;20040;-76
2023/01/27 05:53:37;;;;;;;3.05;1.70;;;5.10;99.90;;;;;;5051347;28;20033;-76
2023/01/27 05:56:04;;;;;;;3.08;1.38;;;5.10;99.90;;;;;;5060556;28;20104;-76
2023/01/27 05:58:30;;;;;;;3.28;1.60;;;5.00;99.90;;;;;;5048730;28;20049;-73
2023/01/27 06:00:56;;;;;;;3.45;1.30;;;5.00;99.90;;;;;;5037244;28;20415;-73
2023/01/27 06:03:22;;;;;;;8.98;1.90;;;5.00;99.90;;;;;;5038488;28;20060;-74
2023/01/27 06:05:55;;;;;;;5.45;2.00;;;5.00;99.90;;;;;;5037482;28;20048;-73
2023/01/27 06:08:25;;;;;;;4.18;2.15;;;4.90;99.90;;;;;;5037596;28;20048;-74
2023/01/27 06:10:52;;;;;;;4.75;2.05;;;5.00;99.90;;;;;;5037670;28;20040;-72
2023/01/27 06:13:20;;;;;;;4.22;1.90;;;5.00;99.90;;;;;;5038297;28;20044;-72
2023/01/27 06:15:47;;;;;;;2.78;1.40;;;5.00;99.90;;;;;;5037232;28;20032;-73
2023/01/27 06:18:13;;;;;;;7.65;1.60;;;5.00;99.90;;;;;;5038192;28;20113;-73
2023/01/27 06:20:39;;;;;;;6.28;1.70;;;5.00;99.90;;;;;;5037527;28;20021;-73
2023/01/27 06:23:06;;;;;;;3.53;1.40;;;4.90;99.90;;;;;;5038333;28;20387;-72
2023/01/27 06:25:41;;;;;;;7.38;1.40;;;4.90;99.90;;;;;;5036010;28;20040;-76
2023/01/27 06:28:06;;;;;;;2.92;1.50;;;4.90;99.90;;;;;;5046708;28;20209;-74
2023/01/27 06:30:34;;;;;;;5.55;2.00;;;4.90;99.90;;;;;;5045861;28;20021;-80
2023/01/27 06:33:00;;;;;;;3.45;1.50;;;4.90;99.90;;;;;;5045662;28;20021;-77
2023/01/27 06:35:25;;;;;;;3.08;1.45;;;5.00;99.90;;;;;;5048932;28;20032;-75
2023/01/27 06:37:51;;;;;;;3.40;1.60;;;5.00;99.90;;;;;;5042516;28;20030;-75
2023/01/27 06:40:17;;;;;;;3.97;1.83;;;5.00;99.90;;;;;;5048595;28;20036;-77
2023/01/27 06:42:43;;;;;;;7.68;3.22;;;4.90;99.90;;;;;;5042900;28;20475;-77
2023/01/27 06:45:10;;;;;;;3.80;1.52;;;4.90;99.90;;;;;;5047119;28;20025;-77
2023/01/27 06:47:35;;;;;;;4.05;1.67;;;4.80;99.90;;;;;;5048536;28;20089;-75
2023/01/27 06:50:00;;;;;;;8.07;2.03;;;4.80;99.90;;;;;;5047600;28;20541;-76
2023/01/27 06:52:26;;;;;;;6.05;2.15;;;4.80;99.90;;;;;;5034677;28;20067;-75
2023/01/27 06:54:52;;;;;;;7.05;2.17;;;4.90;99.90;;;;;;5034812;28;20025;-74
2023/01/27 06:57:17;;;;;;;10.70;2.10;;;4.90;99.90;;;;;;5034185;28;20032;-72
2023/01/27 06:59:42;;;;;;;11.02;2.42;;;4.90;99.90;;;;;;5034494;28;20264;-75
2023/01/27 07:02:11;;;;;;;3.90;1.90;;;4.90;99.90;;;;;;5034499;28;20021;-75
2023/01/27 07:04:37;;;;;;;10.55;2.25;;;4.80;99.90;;;;;;5033963;28;20026;-74
2023/01/27 07:07:02;;;;;;;15.85;2.30;;;4.80;99.90;;;;;;5033494;28;20036;-74
2023/01/27 07:09:28;;;;;;;9.48;2.28;;;4.80;99.90;;;;;;5033428;28;20548;-76
2023/01/27 07:11:53;;;;;;;18.58;3.33;;;4.80;99.90;;;;;;5033655;28;20119;-76
2023/01/27 07:14:19;;;;;;;9.13;2.03;;;4.70;99.90;;;;;;5033386;28;20033;-75
2023/01/27 07:16:45;;;;;;;5.35;2.13;;;4.80;99.90;;;;;;5033987;28;20153;-77
2023/01/27 07:19:11;;;;;;;7.15;2.50;;;4.80;99.90;;;;;;5033415;28;20382;-75
2023/01/27 07:21:37;;;;;;;4.07;2.08;;;4.90;99.90;;;;;;5033456;28;20025;-77
2023/01/27 07:24:03;;;;;;;8.07;2.03;;;4.80;99.90;;;;;;5033349;28;20044;-74
2023/01/27 07:26:29;;;;;;;5.45;1.80;;;4.80;99.90;;;;;;5032583;28;20084;-74
2023/01/27 07:28:55;;;;;;;8.23;1.95;;;4.80;99.90;;;;;;5033350;28;20029;-73
2023/01/27 07:31:21;;;;;;;5.57;1.65;;;4.70;99.90;;;;;;5033044;28;20037;-73
2023/01/27 07:33:47;;;;;;;7.50;2.08;;;4.70;99.90;;;;;;5033178;28;20112;-73
2023/01/27 07:36:12;;;;;;;8.88;3.97;;;4.80;99.90;;;;;;5032272;28;20105;-72
2023/01/27 07:38:38;;;;;;;7.70;2.72;;;4.70;99.90;;;;;;5033389;28;20028;-73
2023/01/27 07:41:05;;;;;;;4.78;2.17;;;4.80;99.90;;;;;;5033237;28;20034;-73
2023/01/27 07:43:33;;;;;;;4.03;1.90;;;4.80;99.90;;;;;;5033160;28;20029;-72
2023/01/27 07:45:59;;;;;;;4.50;1.80;;;4.80;99.90;;;;;;5032296;28;20026;-72
2023/01/27 07:48:25;;;;;;;8.60;2.50;;;4.80;99.90;;;;;;5033171;28;20045;-73
2023/01/27 07:50:51;;;;;;;5.97;2.40;;;4.80;99.90;;;;;;5032678;28;20033;-72
2023/01/27 07:53:16;;;;;;;5.28;2.00;;;4.80;99.90;;;;;;5033761;28;20128;-72
2023/01/27 07:55:42;;;;;;;6.38;1.90;;;4.80;99.90;;;;;;5032226;28;20111;-73
2023/01/27 07:58:08;;;;;;;7.78;1.95;;;4.80;99.90;;;;;;5032791;28;20103;-72
2023/01/27 08:00:34;;;;;;;10.63;2.10;;;4.80;99.90;;;;;;5032328;28;20117;-72
2023/01/27 08:03:01;;;;;;;16.35;3.80;;;4.80;99.90;;;;;;5032459;28;20036;-73
2023/01/27 08:05:28;;;;;;;5.22;2.28;;;4.90;99.90;;;;;;5032064;28;20041;-73
2023/01/27 08:07:55;;;;;;;14.60;6.20;;;4.90;99.90;;;;;;5032494;28;20029;-72
2023/01/27 08:10:21;;;;;;;5.85;3.20;;;5.00;99.90;;;;;;5032535;28;20018;-73
2023/01/27 08:12:47;;;;;;;6.95;2.70;;;5.00;99.90;;;;;;5032107;28;20034;-72
2023/01/27 08:15:13;;;;;;;8.35;2.20;;;5.10;99.90;;;;;;5033031;28;20108;-73
2023/01/27 08:17:38;;;;;;;6.57;2.25;;;5.10;99.90;;;;;;5032323;28;20030;-76
2023/01/27 08:20:05;;;;;;;8.27;2.75;;;5.10;99.90;;;;;;5032595;28;20067;-74
2023/01/27 08:22:30;;;;;;;7.95;3.00;;;5.10;99.90;;;;;;5032186;28;20026;-73
2023/01/27 08:24:56;;;;;;;5.85;2.75;;;5.20;99.90;;;;;;5032260;28;20156;-71
2023/01/27 08:27:21;;;;;;;7.40;2.80;;;5.20;99.90;;;;;;5031934;28;20025;-74
2023/01/27 08:29:47;;;;;;;7.47;2.60;;;5.30;99.90;;;;;;5032254;28;20475;-73
2023/01/27 08:32:12;;;;;;;6.70;2.40;;;5.30;99.90;;;;;;5032143;28;20030;-73
2023/01/27 08:34:39;;;;;;;7.38;2.63;;;5.30;99.90;;;;;;5032061;28;20033;-73
2023/01/27 08:37:05;;;;;;;5.25;2.95;;;5.30;99.90;;;;;;5031816;28;20048;-73
2023/01/27 08:39:31;;;;;;;10.00;2.80;;;5.30;99.90;;;;;;5032129;28;20494;-75
2023/01/27 08:41:57;;;;;;;8.75;2.90;;;5.30;99.90;;;;;;5032251;28;20379;-73
2023/01/27 08:44:23;;;;;;;4.38;2.13;;;5.30;99.90;;;;;;5032933;28;20021;-76
2023/01/27 08:46:49;;;;;;;12.45;4.20;;;5.30;99.90;;;;;;5033079;28;20192;-78
2023/01/27 08:49:15;;;;;;;7.00;3.30;;;5.30;99.90;;;;;;5032865;28;20438;-76
2023/01/27 08:51:41;;;;;;;10.85;3.40;;;5.30;99.90;;;;;;5034154;28;20029;-76
2023/01/27 08:54:07;;;;;;;4.72;2.55;;;5.30;99.90;;;;;;5034867;28;20025;-73
2023/01/27 08:56:33;;;;;;;3.17;2.20;;;5.40;99.90;;;;;;5032034;28;20076;-75
2023/01/27 08:58:59;;;;;;;5.95;2.47;;;5.40;99.90;;;;;;5033570;28;20022;-77
2023/01/27 09:01:24;;;;;;;3.33;2.35;;;5.40;99.90;;;;;;5033493;28;20375;-79
2023/01/27 09:03:50;;;;;;;4.78;1.92;;;5.40;99.90;;;;;;5044317;28;20052;-76
2023/01/27 09:06:17;;;;;;;7.82;2.22;;;5.40;99.90;;;;;;5043229;28;20066;-78
2023/01/27 09:08:43;;;;;;;3.53;1.88;;;5.30;99.90;;;;;;5053965;28;20028;-80
2023/01/27 09:11:14;;;;;;;5.13;2.67;;;5.30;99.90;;;;;;5056355;28;20114;-73
2023/01/27 09:13:40;;;;;;;8.65;2.40;;;5.30;99.90;;;;;;5051313;28;20031;-73
2023/01/27 09:16:06;;;;;;;8.98;3.33;;;5.30;99.90;;;;;;5051048;28;20013;-73
2023/01/27 09:18:32;;;;;;;6.70;2.42;;;5.40;99.90;;;;;;5052143;28;20051;-73
2023/01/27 09:21:03;;;;;;;6.20;2.05;;;5.40;99.90;;;;;;5051978;28;20449;-74
2023/01/27 09:23:28;;;;;;;3.47;2.00;;;5.40;99.90;;;;;;5047149;28;20375;-74
2023/01/27 09:25:54;;;;;;;6.40;2.38;;;5.50;99.90;;;;;;5040608;28;20025;-76
2023/01/27 09:28:19;;;;;;;6.30;2.47;;;5.40;99.90;;;;;;5040449;28;20427;-73
2023/01/27 09:30:45;;;;;;;12.10;2.20;;;5.40;99.90;;;;;;5035995;28;20117;-74
2023/01/27 09:33:12;;;;;;;9.02;1.60;;;5.40;99.90;;;;;;5035390;28;20051;-75
2023/01/27 09:36:05;;;;;;;5.25;1.70;;;5.40;99.90;;;;;;5036292;28;20033;-73
2023/01/27 09:38:35;;;;;;;4.53;1.90;;;5.30;99.90;;;;;;5033317;28;20106;-72
2023/01/27 09:41:15;;;;;;;3.70;2.00;;;5.30;99.90;;;;;;5031815;28;20375;-74
2023/01/27 09:43:53;;;;;;;5.40;1.55;;;5.30;99.90;;;;;;5031666;28;20018;-73
2023/01/27 09:46:44;;;;;;;5.43;1.70;;;5.30;99.90;;;;;;5030905;28;20026;-75
2023/01/27 09:49:22;;;;;;;5.63;1.85;;;5.40;99.90;;;;;;5030055;28;20029;-75
2023/01/27 09:51:48;;;;;;;4.85;1.63;;;5.40;99.90;;;;;;5032003;28;20128;-74
2023/01/27 09:54:42;;;;;;;5.88;1.60;;;5.40;99.90;;;;;;5031278;28;20383;-75
2023/01/27 09:57:07;;;;;;;3.25;1.63;;;5.40;99.90;;;;;;5030922;28;20097;-74
2023/01/27 09:59:52;;;;;;;7.93;2.88;;;5.50;99.90;;;;;;5032175;28;20117;-75
2023/01/27 10:02:58;;;;;;;6.65;1.88;;;5.40;99.90;;;;;;5034892;28;20438;-73
2023/01/27 10:05:42;;;;;;;;;;;5.40;99.90;;;;;;5035642;28;20029;-73
2023/01/27 10:08:29;;;;;;;6.03;2.00;;;5.30;99.90;;;;;;5034896;28;19912;-75
2023/01/27 10:11:19;;;;;;;9.38;2.15;;;5.30;99.90;;;;;;5034690;28;20104;-73
2023/01/27 10:14:03;;;;;;;4.75;2.28;;;5.30;99.90;;;;;;5033856;28;20052;-73
2023/01/27 10:16:43;;;;;;;11.02;3.90;;;5.10;99.90;;;;;;5034020;28;20028;-73
2023/01/27 10:19:11;;;;;;;6.63;3.50;;;5.10;99.90;;;;;;5035453;28;20509;-73
2023/01/27 10:22:28;;;;;;;6.22;2.88;;;5.00;99.90;;;;;;5035143;28;20032;-74
2023/01/27 10:25:27;;;;;;;6.55;3.85;;;5.00;99.90;;;;;;4991135;28;20045;-74
2023/01/27 10:27:56;;;;;;;6.30;4.25;;;4.90;99.90;;;;;;5035046;28;20032;-73
2023/01/27 10:30:34;;;;;;;13.25;5.60;;;4.90;99.90;;;;;;5034860;28;20437;-75
2023/01/27 10:33:17;;;;;;;7.72;4.88;;;4.90;99.90;;;;;;5035068;28;20356;-75
2023/01/27 10:35:51;;;;;;;8.88;5.15;;;5.00;99.90;;;;;;5034440;28;20462;-73
2023/01/27 10:38:25;;;;;;;16.95;9.63;;;5.00;99.90;;;;;;5034835;28;20029;-73
2023/01/27 10:41:06;;;;;;;;;;;5.00;99.90;;;;;;5035194;28;20118;-77
2023/01/27 10:43:53;;;;;;;11.13;5.40;;;5.00;99.90;;;;;;5034976;28;19952;-77
2023/01/27 10:46:47;;;;;;;9.35;4.72;;;5.00;99.90;;;;;;5034412;28;20033;-75
2023/01/27 10:49:22;;;;;;;13.15;4.47;;;5.10;99.90;;;;;;5035153;28;20494;-71
2023/01/27 10:51:56;;;;;;;;;;;5.10;99.90;;;;;;5037056;28;20497;-75
2023/01/27 10:54:29;;;;;;;9.60;4.70;;;5.10;99.90;;;;;;5038633;28;19970;-73
2023/01/27 10:57:09;;;;;;;6.95;3.13;;;5.10;99.90;;;;;;5045345;28;20036;-74
2023/01/27 11:00:05;;;;;;;6.28;3.10;;;5.10;99.90;;;;;;5044106;28;20677;-75
2023/01/27 11:02:40;;;;;;;;;;;5.10;99.90;;;;;;5040398;28;20036;-75
2023/01/27 11:05:19;;;;;;;8.02;2.70;;;5.00;99.90;;;;;;5043321;28;20035;-74
2023/01/27 11:07:58;;;;;;;5.40;2.10;;;5.10;99.90;;;;;;5047436;28;20119;-75
2023/01/27 11:10:32;;;;;;;5.85;2.05;;;5.10;99.90;;;;;;5046348;28;20024;-75
2023/01/27 11:13:00;;;;;;;6.78;1.80;;;5.20;97.50;;;;;;5040888;28;20036;-73
2023/01/27 11:15:29;;;;;;;5.47;2.20;;;5.10;96.00;;;;;;5035702;28;20021;-74
2023/01/27 11:18:03;;;;;;;3.67;1.50;;;5.10;97.10;;;;;;5033854;28;20479;-74
2023/01/27 11:20:46;;;;;;;5.63;1.85;;;5.10;95.00;;;;;;5033770;28;20116;-74
2023/01/27 11:23:20;;;;;;;7.20;2.03;;;5.00;95.40;;;;;;5033981;28;20044;-74
2023/01/27 11:25:56;;;;;;;5.80;1.80;;;5.00;95.70;;;;;;5033731;28;20049;-74
2023/01/27 11:28:36;;;;;;;4.65;1.42;;;5.10;94.40;;;;;;5034610;28;20029;-73
2023/01/27 11:31:33;;;;;;;6.63;1.98;;;5.10;91.80;;;;;;5034633;28;20113;-74
2023/01/27 11:34:18;;;;;;;4.47;1.85;;;5.00;93.30;;;;;;5037385;28;20324;-74
2023/01/27 11:36:44;;;;;;;;;;;5.10;94.60;;;;;;5036643;28;20083;-74
2023/01/27 11:39:10;;;;;;;3.45;1.70;;;5.10;93.00;;;;;;5033731;28;20025;-73
2023/01/27 11:41:39;;;;;;;8.32;1.80;;;5.00;91.80;;;;;;5034161;28;20029;-73
2023/01/27 11:44:08;;;;;;;6.65;1.85;;;5.00;93.20;;;;;;5033117;28;20032;-73
2023/01/27 11:46:35;;;;;;;6.45;1.40;;;5.10;89.80;;;;;;5032466;28;20018;-75
2023/01/27 11:49:01;;;;;;;7.82;1.58;;;5.10;89.00;;;;;;5033435;28;20537;-75
2023/01/27 11:51:36;;;;;;;4.85;1.48;;;5.00;88.90;;;;;;5033972;28;20037;-74
2023/01/27 11:54:10;;;;;;;2.72;1.88;;;5.10;87.30;;;;;;5033656;28;20088;-75
2023/01/27 11:56:38;;;;;;;6.25;1.65;;;5.00;88.30;;;;;;5032548;28;20149;-73
2023/01/27 11:59:08;;;;;;;4.43;1.75;;;5.00;89.00;;;;;;5033420;28;20021;-74
2023/01/27 12:01:47;;;;;;;8.13;1.90;;;5.00;90.00;;;;;;5033473;28;20026;-72
2023/01/27 12:04:44;;;;;;;5.43;1.60;;;4.90;90.30;;;;;;5033292;28;20039;-73
2023/01/27 12:07:23;;;;;;;5.07;1.30;;;5.00;90.80;;;;;;5032382;28;20064;-73
2023/01/27 12:09:49;;;;;;;4.90;1.55;;;5.10;79.40;;;;;;5033058;28;20017;-72
2023/01/27 12:12:14;;;;;;;4.72;1.30;;;5.00;78.60;;;;;;5032343;28;20112;-73
2023/01/27 12:14:59;;;;;;;5.13;1.40;;;5.00;80.40;;;;;;5032465;28;20075;-73
2023/01/27 12:17:34;;;;;;;6.03;1.33;;;5.10;80.30;;;;;;5032188;28;20026;-73
2023/01/27 12:20:24;;;;;;;8.95;1.85;;;5.00;76.70;;;;;;5032868;28;20029;-73
2023/01/27 12:22:53;;;;;;;8.35;1.70;;;5.00;77.40;;;;;;5032144;28;20030;-74
2023/01/27 12:25:28;;;;;;;5.18;1.50;;;5.00;76.30;;;;;;5032514;28;20026;-74
2023/01/27 12:28:00;;;;;;;5.75;1.92;;;5.00;79.80;;;;;;5032929;28;20533;-74
2023/01/27 12:30:29;;;;;;;8.20;1.67;;;5.00;84.40;;;;;;5032410;28;20025;-73
2023/01/27 12:32:56;;;;;;;7.68;1.52;;;5.00;83.60;;;;;;5032336;28;20321;-76
2023/01/27 12:35:32;;;;;;;2.25;1.40;;;5.00;83.40;;;;;;5032276;28;20037;-74
2023/01/27 12:38:22;;;;;;;6.57;1.70;;;5.00;88.20;;;;;;5032861;28;20060;-73
2023/01/27 12:40:59;;;;;;;6.43;1.88;;;5.00;83.90;;;;;;5032827;28;20026;-73
2023/01/27 12:43:25;;;;;;;7.97;1.83;;;5.00;79.30;;;;;;5032512;28;20025;-74
2023/01/27 12:46:03;;;;;;;7.40;1.33;;;5.00;83.30;;;;;;5031746;28;20108;-75
2023/01/27 12:48:33;;;;;;;7.05;1.50;;;5.20;79.70;;;;;;5032226;28;20029;-74
2023/01/27 12:51:13;;;;;;;6.80;1.60;;;5.10;76.00;;;;;;5032356;28;20087;-74
2023/01/27 12:53:42;;;;;;;2.63;1.40;;;5.10;75.70;;;;;;5031955;28;20021;-73
2023/01/27 12:56:13;;;;;;;10.80;3.75;;;;;;;;;;5031865;28;20029;-74
2023/01/27 12:58:54;;;;;;;3.08;1.70;;;;;;;;;;5032028;28;20060;-75
2023/01/27 13:01:20;;;;;;;5.93;1.90;;;;;;;;;;5032012;28;20434;-75
2023/01/27 13:03:49;;;;;;;9.60;1.77;;;;;;;;;;5033435;28;20025;-71
2023/01/27 13:06:16;;;;;;;3.25;1.45;;;;;;;;;;5031421;28;20041;-73
2023/01/27 13:08:43;;;;;;;4.15;1.38;;;;;;;;;;5037988;28;20033;-73
2023/01/27 13:11:09;;;;;;;7.68;1.58;;;;;;;;;;5050654;28;20168;-71
2023/01/27 13:13:35;;;;;;;6.25;1.40;;;;;;;;;;5051233;28;20044;-74
2023/01/27 13:16:06;;;;;;;13.05;2.60;;;;;;;;;;5051391;28;20025;-74
2023/01/27 13:18:33;;;;;;;9.07;1.80;;;;;;;;;;5052049;28;20025;-73
2023/01/27 13:21:12;;;;;;;7.25;1.98;;;;;;;;;;5051559;28;20037;-74
2023/01/27 13:23:40;;;;;;;4.78;1.40;;;;;;;;;;5051466;28;20040;-75
2023/01/27 13:26:09;;;;;;;6.32;1.40;;;;;;;;;;5050886;28;20025;-74
2023/01/27 13:28:53;;;;;;;9.38;2.35;;;;;;;;;;5051895;28;20035;-74
2023/01/27 13:31:32;;;;;;;7.72;2.38;;;;;;;;;;5051403;28;20044;-74
2023/01/27 13:34:17;;;;;;;4.88;1.33;;;;;;;;;;5051489;28;20393;-75
2023/01/27 13:36:46;;;;;;;2.72;1.30;;;;;;;;;;5054807;28;20025;-74
2023/01/27 13:39:40;;;;;;;6.38;1.52;;;;;;;;;;5055782;28;20025;-77
2023/01/27 13:42:13;;;;;;;13.73;5.35;;;;;;;;;;5055620;28;20520;-74
2023/01/27 13:44:45;;;;;;;12.07;2.10;;;;;;;;;;5055793;28;20326;-79
2023/01/27 13:47:14;;;;;;;5.38;1.40;;;;;;;;;;5054774;28;20096;-77
2023/01/27 13:50:12;;;;;;;9.05;1.67;;;;;;;;;;5055887;28;20028;-74
2023/01/27 13:52:38;;;;;;;6.93;1.63;;;;;;;;;;5010257;28;20040;-74